Time;durP1;ratioP1;P1;durP2;ratioP2;P2;SDS_P1;SDS_P2;PMS_P1;PMS_P2;Temp;Humidity;BMP_temperature;BMP_pressure;BME280_temperature;BME280_humidity;BME280_pressure;Samples;Min_cycle;Max_cycle;Signal;HPM_P1;HPM_P2
2023/12/10 00:00:57;;;;;;;13.05;8.93;;;;;;;6.17;100.00;97977.75;5028215;28;20636;-73
2023/12/10 00:03:23;;;;;;;13.13;8.48;;;;;;;6.10;100.00;97979.22;5024610;28;20037;-76
2023/12/10 00:05:49;;;;;;;14.13;9.73;;;;;;;5.91;100.00;97985.94;5011892;28;20140;-76
2023/12/10 00:08:14;;;;;;;12.77;9.02;;;;;;;6.00;100.00;97976.59;5031433;28;20025;-76
2023/12/10 00:10:39;;;;;;;16.92;9.77;;;;;;;5.65;100.00;97910.72;5046409;28;20033;-72
2023/12/10 00:13:05;;;;;;;13.73;9.05;;;;;;;5.66;100.00;97907.22;5029907;28;20045;-72
2023/12/10 00:15:31;;;;;;;13.10;9.10;;;;;;;5.97;100.00;97953.66;5016838;28;20033;-73
2023/12/10 00:17:58;;;;;;;13.70;9.93;;;;;;;6.01;100.00;97943.88;5026236;28;20139;-71
2023/12/10 00:20:25;;;;;;;14.75;10.25;;;;;;;6.04;100.00;97949.59;5032551;28;20146;-71
2023/12/10 00:22:52;;;;;;;13.27;9.73;;;;;;;6.08;100.00;97974.19;5043282;28;20020;-71
2023/12/10 00:25:18;;;;;;;14.30;9.30;;;;;;;5.91;100.00;97918.00;5017071;28;20033;-70
2023/12/10 00:27:46;;;;;;;15.02;10.52;;;;;;;6.12;100.00;97949.75;5025971;28;20136;-70
2023/12/10 00:30:12;;;;;;;14.63;10.23;;;;;;;6.08;100.00;97969.03;5013854;28;20036;-72
2023/12/10 00:32:40;;;;;;;17.98;11.77;;;;;;;5.95;100.00;97983.88;5015332;28;20092;-70
2023/12/10 00:35:06;;;;;;;16.52;11.15;;;;;;;5.67;100.00;97996.53;5028865;28;20067;-72
2023/12/10 00:37:34;;;;;;;14.55;10.57;;;;;;;5.69;100.00;97976.59;5032176;28;20488;-71
2023/12/10 00:40:03;;;;;;;14.02;9.10;;;;;;;5.78;100.00;97993.88;5012536;28;20032;-71
2023/12/10 00:42:31;;;;;;;11.50;8.13;;;;;;;5.50;100.00;97995.38;5034444;28;20465;-72
2023/12/10 00:44:57;;;;;;;12.00;8.23;;;;;;;5.49;100.00;98023.88;5024094;28;20178;-71
2023/12/10 00:47:24;;;;;;;11.43;8.18;;;;;;;5.44;100.00;98037.16;5030176;28;20032;-70
2023/12/10 00:49:50;;;;;;;12.00;8.10;;;;;;;5.10;100.00;97980.63;5015554;28;20045;-72
2023/12/10 00:52:15;;;;;;;12.63;8.07;;;;;;;5.39;100.00;98008.34;5027347;28;20491;-69
2023/12/10 00:54:41;;;;;;;11.73;7.47;;;;;;;5.39;100.00;98026.41;5014719;28;20057;-71
2023/12/10 00:57:12;;;;;;;11.45;8.35;;;;;;;5.43;100.00;98024.38;5025122;28;20037;-71
2023/12/10 00:59:37;;;;;;;11.15;7.15;;;;;;;5.37;100.00;98017.97;5027376;28;20037;-71
2023/12/10 01:02:03;;;;;;;10.60;7.65;;;;;;;5.40;100.00;98030.59;5041826;28;20567;-69
2023/12/10 01:04:28;;;;;;;11.05;8.05;;;;;;;5.41;100.00;98028.84;5030839;28;20516;-70
2023/12/10 01:06:56;;;;;;;10.65;7.32;;;;;;;5.12;100.00;98021.72;5012813;28;20028;-70
2023/12/10 01:09:24;;;;;;;12.32;8.27;;;;;;;5.33;100.00;98068.97;5029046;28;20036;-72
2023/12/10 01:11:49;;;;;;;12.18;7.93;;;;;;;5.30;100.00;98065.81;5009887;28;20518;-70
2023/12/10 01:14:15;;;;;;;12.27;8.48;;;;;;;5.22;100.00;98068.19;5044079;28;20033;-69
2023/12/10 01:16:40;;;;;;;10.15;7.53;;;;;;;5.29;100.00;98077.06;5027311;28;20666;-71
2023/12/10 01:19:06;;;;;;;12.55;7.90;;;;;;;5.36;100.00;98075.63;5023799;28;20037;-69
2023/12/10 01:21:31;;;;;;;9.82;6.30;;;;;;;5.41;100.00;98047.72;5030392;28;20039;-70
2023/12/10 01:23:59;;;;;;;10.35;7.10;;;;;;;5.42;100.00;98044.19;5028357;28;20453;-69
2023/12/10 01:26:25;;;;;;;10.38;7.07;;;;;;;5.23;100.00;97959.81;5009340;28;20056;-70
2023/12/10 01:28:53;;;;;;;10.48;7.10;;;;;;;5.26;100.00;97953.59;5010546;28;20064;-70
2023/12/10 01:31:18;;;;;;;10.52;6.85;;;;;;;5.41;100.00;98027.06;5030625;28;20160;-70
2023/12/10 01:33:46;;;;;;;10.98;7.15;;;;;;;5.29;100.00;98004.88;5011095;28;20040;-70
2023/12/10 01:36:24;;;;;;;10.35;7.20;;;;;;;5.27;100.00;98020.47;5029948;28;20561;-71
2023/12/10 01:38:53;;;;;;;9.73;6.68;;;;;;;5.11;100.00;97965.97;5018287;28;20097;-73
2023/12/10 01:41:18;;;;;;;11.13;7.03;;;;;;;5.44;100.00;97995.91;5039578;28;20014;-71
2023/12/10 01:43:44;;;;;;;10.85;7.20;;;;;;;5.41;100.00;97980.66;5018566;28;20024;-74
2023/12/10 01:46:10;;;;;;;10.02;7.13;;;;;;;5.29;100.00;97966.22;5017547;28;20033;-72
2023/12/10 01:48:38;;;;;;;8.55;5.55;;;;;;;5.22;100.00;98058.72;5044923;28;20021;-72
2023/12/10 01:51:04;;;;;;;10.30;7.40;;;;;;;5.13;100.00;97974.38;5033942;28;20103;-71
2023/12/10 01:53:29;;;;;;;10.73;6.70;;;;;;;4.92;100.00;98018.19;5024254;28;20050;-73
2023/12/10 01:55:54;;;;;;;10.10;6.50;;;;;;;5.17;100.00;98069.38;5027862;28;20067;-71
2023/12/10 01:58:20;;;;;;;8.60;5.97;;;;;;;4.94;100.00;97965.59;5026446;28;20029;-70
2023/12/10 02:00:45;;;;;;;8.65;5.38;;;;;;;5.13;100.00;98010.47;5027948;28;20056;-71
2023/12/10 02:03:11;;;;;;;8.45;5.45;;;;;;;5.27;100.00;98040.28;5027445;28;20387;-71
2023/12/10 02:05:36;;;;;;;9.02;5.47;;;;;;;5.27;100.00;98035.94;5016490;28;20494;-72
2023/12/10 02:08:02;;;;;;;9.30;6.00;;;;;;;5.26;100.00;98038.66;5025337;28;20462;-73
2023/12/10 02:10:30;;;;;;;8.52;5.85;;;;;;;5.11;100.00;98035.53;5023355;28;20032;-71
2023/12/10 02:12:56;;;;;;;9.00;5.60;;;;;;;5.04;100.00;98016.38;5030616;28;20041;-72
2023/12/10 02:15:28;;;;;;;9.10;6.38;;;;;;;5.19;100.00;98041.72;5030924;28;20033;-71
2023/12/10 02:17:53;;;;;;;8.75;5.20;;;;;;;5.17;100.00;98025.56;5046460;28;20071;-71
2023/12/10 02:20:21;;;;;;;8.70;5.53;;;;;;;5.07;100.00;98006.63;5011712;28;20119;-72
2023/12/10 02:22:57;;;;;;;8.45;5.55;;;;;;;4.90;100.00;97991.72;5026586;28;20057;-71
2023/12/10 02:25:34;;;;;;;8.90;5.80;;;;;;;5.11;100.00;98022.66;5030099;28;20076;-69
2023/12/10 02:28:01;;;;;;;9.80;5.72;;;;;;;5.09;100.00;98029.69;5025921;28;20135;-73
2023/12/10 02:30:30;;;;;;;8.07;5.32;;;;;;;5.16;100.00;98038.56;5028223;28;20025;-74
2023/12/10 02:33:01;;;;;;;7.88;4.70;;;;;;;5.16;100.00;98062.56;5025517;28;20537;-73
2023/12/10 02:35:31;;;;;;;8.30;4.93;;;;;;;5.10;100.00;98068.25;5024079;28;20089;-72
2023/12/10 02:37:56;;;;;;;7.10;3.67;;;;;;;5.09;100.00;98070.94;5028592;28;20492;-73
2023/12/10 02:40:22;;;;;;;7.82;4.80;;;;;;;5.07;100.00;98065.91;5028212;28;20536;-71
2023/12/10 02:42:48;;;;;;;6.50;3.72;;;;;;;4.80;100.00;98022.53;5023639;28;20099;-71
2023/12/10 02:45:14;;;;;;;7.53;4.32;;;;;;;4.86;100.00;98021.25;5007946;28;20029;-73
2023/12/10 02:47:43;;;;;;;6.82;4.22;;;;;;;5.14;100.00;98061.06;5024358;28;20033;-71
2023/12/10 02:50:11;;;;;;;7.00;4.13;;;;;;;5.10;100.00;98042.47;5027407;28;20042;-73
2023/12/10 02:52:39;;;;;;;7.35;3.75;;;;;;;5.08;100.00;98049.50;5026549;28;20035;-71
2023/12/10 02:55:09;;;;;;;6.70;3.97;;;;;;;5.11;100.00;98032.97;5041021;28;20111;-71
2023/12/10 02:57:37;;;;;;;6.57;4.00;;;;;;;5.01;100.00;98020.03;5026087;28;20037;-73
2023/12/10 03:00:07;;;;;;;7.07;4.05;;;;;;;5.15;100.00;98053.22;5044653;28;20033;-73
2023/12/10 03:02:33;;;;;;;7.03;3.67;;;;;;;5.05;100.00;98018.81;5028265;28;20064;-71
2023/12/10 03:04:58;;;;;;;7.72;4.43;;;;;;;5.07;100.00;98003.25;5031080;28;20040;-71
2023/12/10 03:07:24;;;;;;;6.53;3.95;;;;;;;5.13;100.00;98019.03;5031149;28;20041;-73
2023/12/10 03:09:49;;;;;;;7.03;4.20;;;;;;;5.10;100.00;98027.00;5027953;28;20785;-71
2023/12/10 03:12:15;;;;;;;6.32;3.67;;;;;;;5.00;100.00;98016.63;5014360;28;20131;-73
2023/12/10 03:14:40;;;;;;;6.43;3.42;;;;;;;5.05;100.00;98023.97;5035821;28;20628;-69
2023/12/10 03:17:06;;;;;;;5.53;2.78;;;;;;;5.09;100.00;98040.84;5009771;28;20861;-72
2023/12/10 03:19:33;;;;;;;6.15;3.40;;;;;;;4.96;100.00;98010.06;5027409;28;20087;-70
2023/12/10 03:21:59;;;;;;;6.70;3.47;;;;;;;5.21;100.00;98039.03;5030739;28;20040;-72
2023/12/10 03:24:24;;;;;;;6.15;3.13;;;;;;;5.08;100.00;98033.22;5029056;28;20051;-72
2023/12/10 03:26:49;;;;;;;8.23;3.40;;;;;;;5.17;100.00;98042.78;5015081;28;20032;-72
2023/12/10 03:29:15;;;;;;;6.68;3.42;;;;;;;5.08;100.00;98044.34;5022909;28;20030;-70
2023/12/10 03:31:43;;;;;;;5.53;2.97;;;;;;;4.77;100.00;97997.06;5014905;28;20044;-69
2023/12/10 03:34:09;;;;;;;5.45;3.15;;;;;;;4.69;100.00;98005.41;5027560;28;20609;-71
2023/12/10 03:36:36;;;;;;;5.40;2.90;;;;;;;4.91;100.00;98050.88;5045503;28;20030;-71
2023/12/10 03:39:02;;;;;;;5.20;3.00;;;;;;;4.79;100.00;98039.75;5016145;28;20033;-71
2023/12/10 03:41:32;;;;;;;4.55;2.17;;;;;;;4.88;100.00;98055.44;5038567;28;20802;-73
2023/12/10 03:44:00;;;;;;;5.03;2.50;;;;;;;4.83;100.00;98053.22;5028005;28;20466;-70
2023/12/10 03:46:30;;;;;;;4.90;2.00;;;;;;;4.74;100.00;98059.91;5042998;28;20071;-71
2023/12/10 03:48:58;;;;;;;4.82;2.25;;;;;;;4.80;100.00;98056.03;5028214;28;20707;-71
2023/12/10 03:51:26;;;;;;;5.20;2.70;;;;;;;4.78;100.00;98051.03;5030151;28;20110;-72
2023/12/10 03:53:53;;;;;;;6.22;2.25;;;;;;;4.50;100.00;98015.50;5034220;28;20064;-69
2023/12/10 03:56:19;;;;;;;4.95;2.38;;;;;;;4.73;100.00;98063.44;5013461;28;20670;-71
2023/12/10 03:58:44;;;;;;;5.43;2.53;;;;;;;4.66;100.00;98064.06;5016301;28;20033;-70
2023/12/10 04:01:10;;;;;;;5.25;2.33;;;;;;;4.53;100.00;98035.88;5028243;28;20733;-70
2023/12/10 04:03:37;;;;;;;7.68;2.88;;;;;;;4.87;100.00;98051.22;5030202;28;20025;-71
2023/12/10 04:06:03;;;;;;;5.10;2.58;;;;;;;4.87;100.00;98046.06;5027199;28;20068;-71
2023/12/10 04:08:33;;;;;;;5.07;2.40;;;;;;;4.83;100.00;98053.22;5029690;28;20120;-70
2023/12/10 04:11:02;;;;;;;5.18;2.42;;;;;;;4.77;100.00;98040.84;5010392;28;20025;-71
2023/12/10 04:13:30;;;;;;;4.60;2.08;;;;;;;4.81;100.00;98060.25;5046810;28;20789;-69
2023/12/10 04:15:55;;;;;;;4.93;2.30;;;;;;;4.72;100.00;98048.91;5030242;28;20090;-70
2023/12/10 04:18:21;;;;;;;4.45;2.10;;;;;;;4.71;100.00;98060.19;5026140;28;20037;-69
2023/12/10 04:20:49;;;;;;;4.55;2.20;;;;;;;4.60;100.00;98050.72;5046958;28;21459;-70
2023/12/10 04:23:17;;;;;;;5.90;2.45;;;;;;;4.82;100.00;98067.88;5011007;28;20618;-69
2023/12/10 04:25:44;;;;;;;4.65;2.22;;;;;;;4.78;100.00;98076.78;5044868;28;20122;-70
2023/12/10 04:28:10;;;;;;;4.10;1.80;;;;;;;4.72;100.00;98071.28;5025581;28;20107;-68
2023/12/10 04:30:38;;;;;;;3.88;1.60;;;;;;;4.79;100.00;98065.53;5028687;28;20028;-70
2023/12/10 04:33:04;;;;;;;4.05;1.80;;;;;;;4.84;100.00;98057.44;5029042;28;20045;-68
2023/12/10 04:35:30;;;;;;;3.85;1.52;;;;;;;4.95;100.00;98049.69;5014296;28;20119;-70
2023/12/10 04:37:55;;;;;;;4.40;1.60;;;;;;;5.07;100.00;98058.16;5026861;28;20029;-69
2023/12/10 04:40:23;;;;;;;4.15;1.83;;;;;;;5.17;100.00;98059.06;5013541;28;20039;-69
2023/12/10 04:42:49;;;;;;;4.68;2.22;;;;;;;5.07;100.00;98060.75;5023744;28;20239;-69
2023/12/10 04:45:14;;;;;;;6.72;2.33;;;;;;;5.06;100.00;98063.47;5011214;28;20033;-70
2023/12/10 04:47:42;;;;;;;4.30;2.00;;;;;;;4.96;100.00;98060.78;5032964;28;20510;-69
2023/12/10 04:50:08;;;;;;;5.50;2.47;;;;;;;4.84;100.00;98061.75;5040796;28;20112;-68
2023/12/10 04:52:36;;;;;;;5.32;2.67;;;;;;;4.97;100.00;98068.41;5028080;28;20033;-68
2023/12/10 04:55:01;;;;;;;4.88;2.20;;;;;;;4.81;100.00;98071.38;5027832;28;20084;-69
2023/12/10 04:57:29;;;;;;;5.60;2.10;;;;;;;4.72;100.00;98069.53;5042105;28;20277;-69
2023/12/10 04:59:54;;;;;;;4.95;2.42;;;;;;;4.70;100.00;98068.84;5028783;28;20028;-69
2023/12/10 05:02:22;;;;;;;5.20;2.50;;;;;;;4.72;100.00;98074.66;5033764;28;20028;-69
2023/12/10 05:04:47;;;;;;;5.63;2.63;;;;;;;4.87;100.00;98072.63;5032607;28;20043;-69
2023/12/10 05:07:13;;;;;;;5.82;2.33;;;;;;;4.83;100.00;98076.41;5030111;28;20029;-68
2023/12/10 05:09:38;;;;;;;4.75;2.25;;;;;;;4.59;100.00;98046.50;5044836;28;20144;-69
2023/12/10 05:12:04;;;;;;;4.70;2.25;;;;;;;4.74;100.00;98090.00;5026698;28;20775;-68
2023/12/10 05:14:32;;;;;;;5.50;2.58;;;;;;;4.61;100.00;98082.44;5028148;28;20687;-68
2023/12/10 05:16:57;;;;;;;6.53;3.00;;;;;;;4.59;100.00;98103.16;5029148;28;20021;-68
2023/12/10 05:19:23;;;;;;;5.22;2.67;;;;;;;4.59;100.00;98094.59;5028700;28;20028;-69
2023/12/10 05:21:48;;;;;;;5.70;2.83;;;;;;;4.58;100.00;98090.38;5026623;28;20060;-69
2023/12/10 05:24:13;;;;;;;6.15;3.03;;;;;;;4.51;100.00;98089.22;5030196;28;20029;-70
2023/12/10 05:26:39;;;;;;;5.20;2.55;;;;;;;4.57;100.00;98088.75;5029609;28;20526;-70
2023/12/10 05:29:04;;;;;;;5.90;2.85;;;;;;;4.59;100.00;98097.19;5029178;28;20053;-70
2023/12/10 05:31:30;;;;;;;5.65;3.00;;;;;;;4.58;100.00;98106.69;5042228;28;20039;-70
2023/12/10 05:33:57;;;;;;;4.43;2.05;;;;;;;4.57;100.00;98111.94;5030994;28;20032;-68
2023/12/10 05:36:23;;;;;;;6.03;2.88;;;;;;;4.47;100.00;98116.97;5013539;28;20152;-68
2023/12/10 05:38:48;;;;;;;5.55;3.13;;;;;;;4.59;100.00;98115.22;5030028;28;20537;-70
2023/12/10 05:41:14;;;;;;;5.93;2.70;;;;;;;4.65;100.00;98117.28;5030911;28;20085;-68
2023/12/10 05:43:39;;;;;;;6.40;2.75;;;;;;;4.67;100.00;98124.91;5042663;28;20021;-68
2023/12/10 05:46:05;;;;;;;5.28;2.63;;;;;;;4.68;100.00;98116.25;5041359;28;20065;-68
2023/12/10 05:48:30;;;;;;;5.45;2.63;;;;;;;4.80;100.00;98129.00;5026164;28;20094;-68
2023/12/10 05:50:58;;;;;;;4.32;2.10;;;;;;;4.47;100.00;98077.53;5041558;28;20488;-70
2023/12/10 05:53:24;;;;;;;4.45;2.05;;;;;;;4.87;100.00;98118.19;5029610;28;20049;-70
2023/12/10 05:55:50;;;;;;;5.22;2.65;;;;;;;4.98;100.00;98129.31;5041979;28;20112;-68
2023/12/10 05:58:15;;;;;;;6.60;2.20;;;;;;;5.08;100.00;98136.31;5039222;28;20089;-67
2023/12/10 06:00:40;;;;;;;5.18;2.33;;;;;;;5.08;100.00;98152.59;5042343;28;20028;-69
2023/12/10 06:03:06;;;;;;;6.45;2.47;;;;;;;5.08;100.00;98149.19;5026520;28;20033;-67
2023/12/10 06:05:32;;;;;;;5.20;2.50;;;;;;;5.06;100.00;98161.38;5044856;28;20102;-68
2023/12/10 06:07:57;;;;;;;5.30;2.50;;;;;;;4.94;100.00;98158.81;5011850;28;20654;-68
2023/12/10 06:10:22;;;;;;;4.55;2.22;;;;;;;5.01;100.00;98169.47;5043424;28;20029;-67
2023/12/10 06:12:50;;;;;;;5.28;2.95;;;;;;;5.03;100.00;98179.66;5025126;28;20049;-68
2023/12/10 06:15:18;;;;;;;5.53;2.47;;;;;;;5.05;100.00;98176.00;5010412;28;20029;-68
2023/12/10 06:17:43;;;;;;;5.72;2.10;;;;;;;5.06;100.00;98182.00;5027542;28;21205;-68
2023/12/10 06:20:09;;;;;;;5.30;2.20;;;;;;;4.83;100.00;98145.97;5005578;28;20047;-68
2023/12/10 06:22:35;;;;;;;4.60;2.25;;;;;;;4.98;100.00;98182.59;5027191;28;20037;-68
2023/12/10 06:25:00;;;;;;;4.63;2.03;;;;;;;4.95;100.00;98191.38;5025090;28;20028;-68
2023/12/10 06:27:26;;;;;;;4.75;2.13;;;;;;;4.88;100.00;98187.66;5027769;28;20056;-68
2023/12/10 06:29:51;;;;;;;5.18;2.40;;;;;;;4.83;100.00;98189.75;5028985;28;20044;-68
2023/12/10 06:32:19;;;;;;;4.60;1.95;;;;;;;4.93;100.00;98190.69;5010301;28;20033;-67
2023/12/10 06:34:45;;;;;;;5.28;2.40;;;;;;;4.80;100.00;98195.13;5027019;28;20061;-68
2023/12/10 06:37:12;;;;;;;5.03;2.40;;;;;;;4.83;100.00;98200.06;5046749;28;20877;-70
2023/12/10 06:39:38;;;;;;;4.70;2.15;;;;;;;4.56;100.00;98154.06;5029435;28;20037;-68
2023/12/10 06:42:03;;;;;;;5.28;2.30;;;;;;;4.83;100.00;98197.47;5030714;28;20106;-68
2023/12/10 06:44:29;;;;;;;5.78;2.13;;;;;;;4.76;100.00;98199.72;5044723;28;20049;-68
2023/12/10 06:46:55;;;;;;;5.93;2.40;;;;;;;4.66;100.00;98196.22;5016236;28;20408;-68
2023/12/10 06:49:20;;;;;;;4.65;2.08;;;;;;;4.71;100.00;98212.13;5014712;28;20098;-68
2023/12/10 06:51:45;;;;;;;5.10;2.28;;;;;;;4.57;100.00;98210.59;5012756;28;20041;-67
2023/12/10 06:54:16;;;;;;;5.00;2.47;;;;;;;4.53;100.00;98208.38;5048003;28;20120;-67
2023/12/10 06:56:43;;;;;;;4.85;1.92;;;;;;;4.50;100.00;98214.56;5027192;28;20723;-68
2023/12/10 06:59:09;;;;;;;4.07;1.70;;;;;;;4.60;100.00;98233.56;5031080;28;20130;-67
2023/12/10 07:01:37;;;;;;;5.43;2.40;;;;;;;4.71;100.00;98237.88;5027595;28;20432;-67
2023/12/10 07:04:03;;;;;;;5.75;2.58;;;;;;;4.82;100.00;98248.19;5025859;28;20047;-67
2023/12/10 07:06:29;;;;;;;5.60;2.17;;;;;;;4.89;100.00;98252.88;5004838;28;20040;-68
2023/12/10 07:08:57;;;;;;;4.97;2.40;;;;;;;4.96;100.00;98251.47;5038091;28;20029;-68
2023/12/10 07:11:22;;;;;;;5.75;2.42;;;;;;;4.96;100.00;98264.34;5037210;28;20024;-68
2023/12/10 07:13:53;;;;;;;4.88;2.45;;;;;;;4.95;100.00;98270.44;5037540;28;20060;-68
2023/12/10 07:16:19;;;;;;;4.93;2.35;;;;;;;4.81;100.00;98269.72;5019300;28;20515;-68
2023/12/10 07:18:44;;;;;;;5.53;2.70;;;;;;;4.89;100.00;98261.44;5037716;28;20059;-68
2023/12/10 07:21:12;;;;;;;5.07;2.40;;;;;;;4.94;100.00;98268.78;5033700;28;20812;-68
2023/12/10 07:23:40;;;;;;;4.97;2.38;;;;;;;4.91;100.00;98282.75;5034637;28;20664;-68
2023/12/10 07:26:05;;;;;;;5.60;2.78;;;;;;;4.81;100.00;98277.44;5035119;28;20115;-68
2023/12/10 07:28:33;;;;;;;6.75;2.42;;;;;;;4.79;100.00;98283.66;5039171;28;20112;-68
2023/12/10 07:30:59;;;;;;;5.05;2.42;;;;;;;4.76;100.00;98282.16;5021728;28;20021;-67
2023/12/10 07:33:24;;;;;;;5.72;2.45;;;;;;;4.72;100.00;98292.78;5035948;28;20244;-68
2023/12/10 07:35:50;;;;;;;5.45;2.47;;;;;;;4.75;100.00;98298.53;5036684;28;20166;-68
2023/12/10 07:38:18;;;;;;;5.32;2.50;;;;;;;4.84;100.00;98286.72;5019363;28;20469;-68
2023/12/10 07:40:43;;;;;;;5.20;2.20;;;;;;;4.91;100.00;98303.34;5034723;28;20052;-68
2023/12/10 07:43:09;;;;;;;4.90;2.58;;;;;;;4.90;100.00;98300.88;5051834;28;20139;-68
2023/12/10 07:45:34;;;;;;;6.18;2.92;;;;;;;5.00;100.00;98301.81;5037542;28;20029;-68
2023/12/10 07:48:00;;;;;;;5.65;2.80;;;;;;;4.63;100.00;98261.63;5050690;28;20086;-68
2023/12/10 07:50:25;;;;;;;5.60;2.83;;;;;;;4.90;100.00;98313.78;5022448;28;20340;-68
2023/12/10 07:52:50;;;;;;;5.15;2.95;;;;;;;4.89;100.00;98325.00;5031149;28;20045;-67
2023/12/10 07:55:16;;;;;;;4.80;2.40;;;;;;;4.84;100.00;98329.66;5038669;28;20084;-68
2023/12/10 07:57:41;;;;;;;5.90;2.47;;;;;;;4.90;100.00;98324.88;5039068;28;20024;-68
2023/12/10 08:00:13;;;;;;;5.47;2.63;;;;;;;4.97;100.00;98338.13;5055104;28;20025;-68
2023/12/10 08:02:38;;;;;;;4.68;2.42;;;;;;;4.93;100.00;98345.28;5033177;28;20024;-68
2023/12/10 08:05:04;;;;;;;5.10;2.70;;;;;;;4.89;100.00;98336.16;5037421;28;20486;-68
2023/12/10 08:07:30;;;;;;;5.10;2.38;;;;;;;4.61;100.00;98289.25;5022199;28;20037;-66
2023/12/10 08:09:55;;;;;;;6.05;2.70;;;;;;;4.93;100.00;98341.88;5052869;28;20757;-68
2023/12/10 08:12:23;;;;;;;5.43;2.50;;;;;;;4.73;100.00;98317.63;5019750;28;20033;-68
2023/12/10 08:14:49;;;;;;;6.50;3.10;;;;;;;4.97;100.00;98357.00;5034745;28;20025;-68
2023/12/10 08:17:17;;;;;;;6.45;2.78;;;;;;;4.97;100.00;98357.00;5036865;28;20040;-68
2023/12/10 08:19:42;;;;;;;4.75;2.08;;;;;;;5.14;100.00;98366.00;5051023;28;20231;-68
2023/12/10 08:22:13;;;;;;;5.50;2.50;;;;;;;5.11;100.00;98368.84;5038377;28;20082;-68
2023/12/10 08:24:39;;;;;;;15.43;3.25;;;;;;;5.17;100.00;98355.47;5034685;28;20032;-68
2023/12/10 08:27:04;;;;;;;6.05;2.33;;;;;;;5.14;100.00;98376.31;5034985;28;20048;-68
2023/12/10 08:29:29;;;;;;;5.68;2.63;;;;;;;5.14;100.00;98373.75;5014707;28;20043;-68
2023/12/10 08:31:57;;;;;;;5.97;2.80;;;;;;;5.07;100.00;98346.78;5033682;28;20030;-68
2023/12/10 08:34:23;;;;;;;7.53;3.45;;;;;;;5.18;100.00;98377.75;5035964;28;20024;-68
2023/12/10 08:36:48;;;;;;;6.88;3.42;;;;;;;5.13;100.00;98373.84;5032817;28;20037;-68
2023/12/10 08:39:13;;;;;;;6.07;3.50;;;;;;;5.09;100.00;98387.91;5019759;28;20091;-69
2023/12/10 08:41:39;;;;;;;5.05;2.08;;;;;;;5.03;100.00;98389.22;5033579;28;20114;-68
2023/12/10 08:44:04;;;;;;;9.02;4.40;;;;;;;5.12;100.00;98382.53;5034607;28;20111;-68
2023/12/10 08:46:30;;;;;;;7.68;4.00;;;;;;;4.93;100.00;98363.31;5034926;28;20025;-68
2023/12/10 08:48:55;;;;;;;6.60;3.65;;;;;;;5.10;100.00;98410.19;5032527;28;20033;-68
2023/12/10 08:51:21;;;;;;;12.82;7.13;;;;;;;5.06;100.00;98414.75;5037141;28;20033;-68
2023/12/10 08:53:47;;;;;;;7.18;3.58;;;;;;;5.05;100.00;98407.13;5035609;28;20056;-68
2023/12/10 08:56:12;;;;;;;6.75;3.45;;;;;;;5.10;100.00;98430.81;5035738;28;20048;-68
2023/12/10 08:58:37;;;;;;;8.23;4.82;;;;;;;5.07;100.00;98425.88;5049033;28;20032;-68
2023/12/10 09:01:05;;;;;;;9.27;3.80;;;;;;;4.81;100.00;98385.66;5033127;28;20810;-69
2023/12/10 09:03:31;;;;;;;6.35;3.47;;;;;;;5.13;100.00;98420.25;5032597;28;20037;-68
2023/12/10 09:05:58;;;;;;;6.38;3.83;;;;;;;5.23;100.00;98422.97;5014043;28;20036;-68
2023/12/10 09:08:26;;;;;;;7.70;3.90;;;;;;;5.27;100.00;98426.97;5032462;28;20045;-68
2023/12/10 09:10:52;;;;;;;5.57;3.08;;;;;;;5.30;100.00;98439.63;5018012;28;20041;-68
2023/12/10 09:13:17;;;;;;;5.68;2.92;;;;;;;5.33;100.00;98434.22;5046573;28;20037;-69
2023/12/10 09:15:45;;;;;;;6.07;3.33;;;;;;;5.38;100.00;98452.75;5035676;28;20029;-68
2023/12/10 09:18:11;;;;;;;5.78;3.00;;;;;;;5.22;100.00;98413.59;5031523;28;20128;-68
2023/12/10 09:20:36;;;;;;;5.53;2.50;;;;;;;5.46;100.00;98454.75;5034451;28;20123;-69
2023/12/10 09:23:06;;;;;;;5.78;2.63;;;;;;;5.38;100.00;98457.91;5033594;28;20056;-68
2023/12/10 09:25:37;;;;;;;5.47;2.90;;;;;;;5.34;100.00;98453.94;5050141;28;20033;-68
2023/12/10 09:28:02;;;;;;;8.20;3.95;;;;;;;5.37;100.00;98444.22;5015765;28;20044;-69
2023/12/10 09:30:30;;;;;;;6.60;2.47;;;;;;;5.36;100.00;98441.75;5029738;28;20025;-70
2023/12/10 09:32:58;;;;;;;5.38;3.05;;;;;;;5.14;100.00;98399.53;5017157;28;20718;-69
2023/12/10 09:35:23;;;;;;;5.93;2.67;;;;;;;5.43;100.00;98440.34;5026097;28;20044;-68
2023/12/10 09:37:49;;;;;;;5.55;2.70;;;;;;;5.61;100.00;98457.94;5017472;28;20032;-68
2023/12/10 09:40:14;;;;;;;5.70;2.92;;;;;;;5.63;100.00;98450.91;5032396;28;20024;-68
2023/12/10 09:42:40;;;;;;;6.45;2.70;;;;;;;5.45;100.00;98423.00;5017542;28;20029;-68
2023/12/10 09:45:09;;;;;;;6.63;3.35;;;;;;;5.77;100.00;98453.25;5025154;28;20034;-69
2023/12/10 09:47:34;;;;;;;5.75;3.28;;;;;;;5.74;100.00;98463.81;5032769;28;20036;-69
2023/12/10 09:50:02;;;;;;;5.38;3.08;;;;;;;5.70;100.00;98457.25;5033066;28;20041;-69
2023/12/10 09:52:28;;;;;;;6.15;2.50;;;;;;;5.54;100.00;98427.44;5034847;28;20037;-69
2023/12/10 09:54:53;;;;;;;4.72;2.25;;;;;;;5.80;100.00;98470.25;5024054;28;20790;-69
2023/12/10 09:57:22;;;;;;;4.97;2.67;;;;;;;5.85;100.00;98457.81;5047102;28;20041;-69
2023/12/10 09:59:50;;;;;;;5.43;2.10;;;;;;;5.73;100.00;98418.28;5011923;28;20041;-69
2023/12/10 10:02:16;;;;;;;6.70;2.20;;;;;;;6.13;100.00;98457.34;5025844;28;20033;-69
2023/12/10 10:04:45;;;;;;;4.68;2.10;;;;;;;6.16;100.00;98453.69;5016137;28;20542;-69
2023/12/10 10:07:13;;;;;;;5.82;2.33;;;;;;;5.92;100.00;98397.03;5017985;28;20029;-69
2023/12/10 10:09:39;;;;;;;5.53;2.67;;;;;;;6.15;100.00;98436.56;5030825;28;20029;-68
2023/12/10 10:12:05;;;;;;;5.75;2.70;;;;;;;6.30;100.00;98430.19;5017970;28;20734;-69
2023/12/10 10:14:31;;;;;;;5.47;2.72;;;;;;;6.20;100.00;98431.03;5044044;28;20033;-68
2023/12/10 10:16:56;;;;;;;6.30;2.65;;;;;;;6.12;100.00;98422.13;5028539;28;20850;-69
2023/12/10 10:19:24;;;;;;;5.55;3.20;;;;;;;5.99;100.00;98385.34;5037686;28;20032;-69
2023/12/10 10:21:50;;;;;;;5.00;2.72;;;;;;;6.41;100.00;98416.44;5038978;28;20036;-69
2023/12/10 10:24:15;;;;;;;5.47;2.55;;;;;;;6.62;100.00;98420.78;5022446;28;20403;-69
2023/12/10 10:26:41;;;;;;;5.90;3.25;;;;;;;6.27;100.00;98365.88;5035195;28;20038;-68
2023/12/10 10:29:07;;;;;;;6.03;2.47;;;;;;;6.57;100.00;98410.84;5027920;28;20468;-69
2023/12/10 10:31:33;;;;;;;5.30;2.47;;;;;;;6.63;100.00;98412.13;5039003;28;20021;-69
2023/12/10 10:34:04;;;;;;;5.05;2.45;;;;;;;6.48;100.00;98381.41;5035658;28;20039;-69
2023/12/10 10:36:31;;;;;;;7.40;3.03;;;;;;;6.77;100.00;98426.47;5018498;28;20075;-68
2023/12/10 10:38:59;;;;;;;6.60;3.85;;;;;;;6.80;100.00;98424.47;5051397;28;20037;-68
2023/12/10 10:41:25;;;;;;;10.55;5.10;;;;;;;6.85;100.00;98437.03;5050592;28;20500;-69
2023/12/10 10:43:50;;;;;;;7.68;4.20;;;;;;;7.02;100.00;98433.06;5026179;28;20532;-68
2023/12/10 10:46:21;;;;;;;6.43;3.33;;;;;;;6.95;100.00;98381.03;5035631;28;20555;-69
2023/12/10 10:48:54;;;;;;;4.40;1.80;;;;;;;7.26;100.00;98394.78;5029039;28;20029;-69
2023/12/10 10:51:23;;;;;;;5.72;1.90;;;;;;;7.26;100.00;98402.56;5037620;28;20124;-69
2023/12/10 10:53:50;;;;;;;7.45;2.58;;;;;;;7.63;100.00;98435.69;5048653;28;20051;-69
2023/12/10 10:56:19;;;;;;;3.95;1.65;;;;;;;7.78;100.00;98433.56;5022040;28;20068;-69
2023/12/10 10:58:44;;;;;;;6.80;1.85;;;;;;;7.88;100.00;98438.75;5037835;28;20109;-69
2023/12/10 11:01:35;;;;;;;5.90;2.17;;;;;;;7.88;100.00;98429.25;5035917;28;20108;-69
2023/12/10 11:04:01;;;;;;;9.50;4.47;;;;;;;7.85;100.00;98432.09;5035467;28;20045;-68
2023/12/10 11:06:26;;;;;;;6.15;2.20;;;;;;;7.90;100.00;98431.69;5030996;28;20061;-69
2023/12/10 11:08:59;;;;;;;4.82;2.40;;;;;;;7.87;100.00;98432.78;5017111;28;20036;-68
2023/12/10 11:11:27;;;;;;;4.72;2.22;;;;;;;7.87;100.00;98432.78;5015446;28;20029;-69
2023/12/10 11:13:53;;;;;;;5.82;2.10;;;;;;;7.92;100.00;98416.00;5029062;28;20056;-69
2023/12/10 11:16:21;;;;;;;5.90;2.15;;;;;;;8.02;100.00;98416.88;5026117;28;20029;-69
2023/12/10 11:18:55;;;;;;;4.25;1.95;;;;;;;8.14;100.00;98418.41;5010468;28;20053;-68
2023/12/10 11:21:23;;;;;;;4.97;2.25;;;;;;;8.08;100.00;98411.94;5046703;28;20033;-69
2023/12/10 11:23:51;;;;;;;4.93;2.10;;;;;;;8.04;100.00;98412.38;5031270;28;20077;-69
2023/12/10 11:26:16;;;;;;;4.00;1.70;;;;;;;8.09;100.00;98394.66;5034256;28;20021;-69
2023/12/10 11:28:48;;;;;;;4.90;1.90;;;;;;;8.28;100.00;98402.44;5047226;28;20672;-69